Startpagina
METAR-TAF:

METAR-TAF

Vliegvelden :

Nenana, Alaska, Verenigde Staten

breedte: 64-33N, lengte: 149-05W, hoogte: 110 m

Actueel weer

Dit bericht is 1 uur en het 2 minuten geleden gemaakt, om 02:53 UTC
Wind 7 kt uit het noordoosten
Temperatuur 6°C
Vochtigheid 75%
Druk 986 hPa
Zicht: 16.1 km
Verspreide wolken op 7000 ft
Geheel bewolkt op 10000 ft
lichte regen

METAR: PANN 200253Z AUTO 04007KT 10SM -RA SCT070 OVC100 06/02 A2912 RMK AO2 RAE03B47 SLP868 P0000 60000 T00610022 56014 TSNO $

Tijdstip: 19:55 (03:55 UTC)


TAF: ontbreekt

Waarnemingen en weersverwachtingen van meer dan 4000 vliegvelden (METAR en TAF).

De beschikbare stations zijn de gele en rode punten op de kaart.

Ga met uw muis naar het station om de naam te zien.

Klik dan om waarnemingen en weersverwachtingen te zien.

kaart wijzigen: klik op de groene knoppen met een zwart kruis om in te zoomen, op de groene knop met een streepje om uit te zoomen of op de groene pijlen voor aangrenzende kaarten.


METAR-TAF: